Bhera Weather



Bhera's Current Weather

Temprature 28.45o clear sky

clear sky

Rain: 0 %

Min Temprature28.45o
Max Temprature28.45o
Humidity60
Wind Speed2.42 m/h
Sun Rise05:37:14
Sun Set18:45:28
Current Time: 23-Aug-2019 05:04:55
Lat/Lon: 32.48, 72.91




Bhera's Geo Location



Bhera's Weather Forecast

Time Overall Temp Min Temp Max Temp Humidity Wind Speed Rain
23-Aug-2019 (Fri)
08:00:00 clear sky 31.200 31.197 31.200 53 2.19 m/h 0 %
11:00:00 clear sky 35.650 35.650 35.650 36 1.94 m/h 0 %
14:00:00 clear sky 38.730 38.730 38.731 27 2.3 m/h 0 %
17:00:00 few clouds 38.610 38.610 38.611 27 2.23 m/h 0 %
20:00:00 scattered clouds 35.350 35.350 35.350 33 0.27 m/h 0 %
23:00:00 few clouds 33.942 33.942 33.942 34 2.27 m/h 0 %
24-Aug-2019 (Sat)
02:00:00 clear sky 30.731 30.731 30.731 45 2.5 m/h 0 %
05:00:00 clear sky 29.755 29.755 29.755 48 2.83 m/h 0 %
08:00:00 clear sky 31.797 31.797 31.797 45 3.32 m/h 0 %
11:00:00 clear sky 37.169 37.169 37.169 30 3.32 m/h 0 %
14:00:00 clear sky 39.869 39.869 39.869 23 1.35 m/h 0 %
17:00:00 clear sky 40.023 40.023 40.023 22 0.66 m/h 0 %
20:00:00 clear sky 36.350 36.350 36.350 28 0.31 m/h 0 %
23:00:00 clear sky 34.269 34.269 34.269 32 2.91 m/h 0 %
25-Aug-2019 (Sun)
02:00:00 clear sky 31.331 31.331 31.331 43 2.02 m/h 0 %
05:00:00 clear sky 30.457 30.457 30.457 48 2.82 m/h 0 %
08:00:00 clear sky 31.614 31.614 31.614 48 4.53 m/h 0 %
11:00:00 clear sky 36.616 36.616 36.616 35 4.39 m/h 0 %
14:00:00 clear sky 40.250 40.250 40.250 23 2.31 m/h 0 %
17:00:00 clear sky 41.050 41.050 41.050 19 1.62 m/h 0 %
20:00:00 clear sky 36.481 36.481 36.481 25 2.2 m/h 0 %
23:00:00 clear sky 32.611 32.611 32.611 48 3.5 m/h 0 %
26-Aug-2019 (Mon)
02:00:00 clear sky 31.065 31.065 31.065 56 3.66 m/h 0 %
05:00:00 clear sky 29.450 29.450 29.450 64 4.78 m/h 0 %
08:00:00 clear sky 29.467 29.467 29.467 67 5.62 m/h 0 %
11:00:00 clear sky 34.972 34.972 34.972 44 5.02 m/h 0 %
14:00:00 clear sky 39.484 39.484 39.484 30 4.2 m/h 0 %
17:00:00 clear sky 39.420 39.420 39.420 28 4.43 m/h 0 %
20:00:00 clear sky 35.372 35.372 35.372 36 3.06 m/h 0 %
23:00:00 clear sky 32.214 32.214 32.214 47 2.18 m/h 0 %
27-Aug-2019 (Tue)
02:00:00 broken clouds 30.916 30.916 30.916 52 2.01 m/h 0 %
05:00:00 broken clouds 30.450 30.450 30.450 55 1.69 m/h 0 %
08:00:00 clear sky 32.835 32.835 32.835 49 2.04 m/h 0 %
11:00:00 clear sky 37.136 37.136 37.136 37 1.67 m/h 0 %
14:00:00 broken clouds 38.936 38.936 38.936 31 1.79 m/h 0 %
17:00:00 light rain 36.365 36.365 36.365 38 1.99 m/h 38 %
20:00:00 overcast clouds 34.650 34.650 34.650 41 1.51 m/h 0 %
23:00:00 broken clouds 33.450 33.450 33.450 43 2.42 m/h 0 %
28-Aug-2019 (Wed)
02:00:00 scattered clouds 31.357 31.357 31.357 52 2.58 m/h 0 %
05:00:00 light rain 29.972 29.972 29.972 58 1.31 m/h 88 %


Bhera's Tourist Spots

Historical Places in Bhera

Famous Cities (61)